Time;durP1;ratioP1;P1;durP2;ratioP2;P2;SDS_P1;SDS_P2;PMS_P1;PMS_P2;Temp;Humidity;BMP_temperature;BMP_pressure;BME280_temperature;BME280_humidity;BME280_pressure;Samples;Min_cycle;Max_cycle;Signal;HPM_P1;HPM_P2
2022/05/29 00:00:50;;;;;;;3.17;1.20;;;18.40;61.40;;;;;;4974715;28;20102;-76
2022/05/29 00:03:16;;;;;;;3.10;1.08;;;18.40;61.70;;;;;;4975365;28;20478;-77
2022/05/29 00:05:42;;;;;;;3.15;1.00;;;18.30;61.80;;;;;;4957569;28;20027;-78
2022/05/29 00:08:17;;;;;;;4.00;0.93;;;18.20;61.90;;;;;;4975227;28;20023;-77
2022/05/29 00:10:43;;;;;;;3.88;1.15;;;18.30;62.00;;;;;;4975401;28;20105;-78
2022/05/29 00:13:11;;;;;;;6.93;1.08;;;18.20;61.90;;;;;;4975138;28;20522;-78
2022/05/29 00:15:38;;;;;;;4.13;1.40;;;18.20;62.20;;;;;;4975401;28;20109;-77
2022/05/29 00:18:06;;;;;;;4.32;1.15;;;18.10;62.20;;;;;;4975984;28;20475;-78
2022/05/29 00:20:32;;;;;;;3.03;1.30;;;18.00;62.50;;;;;;4975614;28;20043;-77
2022/05/29 00:22:58;;;;;;;5.45;1.30;;;18.00;62.70;;;;;;4975570;28;20026;-77
2022/05/29 00:25:24;;;;;;;2.28;1.10;;;18.00;62.80;;;;;;4975566;28;20040;-77
2022/05/29 00:27:50;;;;;;;3.67;1.23;;;18.00;62.60;;;;;;4975226;28;20027;-77
2022/05/29 00:30:16;;;;;;;2.85;1.20;;;18.00;62.40;;;;;;4975461;28;20030;-77
2022/05/29 00:32:41;;;;;;;6.57;1.38;;;17.90;62.60;;;;;;4975359;28;20035;-78
2022/05/29 00:35:08;;;;;;;4.72;1.58;;;17.90;62.60;;;;;;4975402;28;20019;-77
2022/05/29 00:37:39;;;;;;;2.42;1.20;;;17.80;62.80;;;;;;4975589;28;20027;-77
2022/05/29 00:40:14;;;;;;;;;;;17.80;63.40;;;;;;4975642;28;20034;-78
2022/05/29 00:42:39;;;;;;;1.85;1.15;;;17.70;63.00;;;;;;4975019;28;19906;-77
2022/05/29 00:45:15;;;;;;;3.38;1.40;;;17.70;63.50;;;;;;4975033;28;20054;-78
2022/05/29 00:47:40;;;;;;;4.70;1.27;;;17.70;63.60;;;;;;4957913;28;20023;-78
2022/05/29 00:50:07;;;;;;;4.30;1.70;;;17.70;63.40;;;;;;4975288;28;20027;-78
2022/05/29 00:52:33;;;;;;;3.42;1.30;;;17.60;63.70;;;;;;4975356;28;20030;-77
2022/05/29 00:55:03;;;;;;;5.75;1.70;;;17.60;63.70;;;;;;4974525;28;20054;-77
2022/05/29 00:57:35;;;;;;;4.82;1.20;;;17.60;64.30;;;;;;4974950;28;20034;-77
2022/05/29 01:00:06;;;;;;;3.00;1.20;;;17.50;64.40;;;;;;4974482;28;20030;-77
2022/05/29 01:02:32;;;;;;;3.33;1.10;;;17.40;64.70;;;;;;4974719;28;20494;-77
2022/05/29 01:04:58;;;;;;;5.18;1.30;;;17.30;64.80;;;;;;4974902;28;20023;-77
2022/05/29 01:07:25;;;;;;;8.52;1.65;;;17.30;65.00;;;;;;4974668;28;20533;-78
2022/05/29 01:09:51;;;;;;;4.95;1.58;;;17.20;65.10;;;;;;4974771;28;20037;-77
2022/05/29 01:12:36;;;;;;;2.17;0.85;;;17.20;65.30;;;;;;4957156;28;20113;-77
2022/05/29 01:15:07;;;;;;;3.55;1.20;;;17.20;65.40;;;;;;4974102;28;20037;-77
2022/05/29 01:17:43;;;;;;;5.53;1.38;;;17.10;65.40;;;;;;4974716;28;20026;-77
2022/05/29 01:20:09;;;;;;;3.67;1.40;;;17.10;66.30;;;;;;4974144;28;20031;-77
2022/05/29 01:23:04;;;;;;;3.85;1.30;;;17.10;66.30;;;;;;4974230;28;20031;-78
2022/05/29 01:25:48;;;;;;;7.05;1.27;;;17.00;65.80;;;;;;4974477;28;20030;-77
2022/05/29 01:28:52;;;;;;;3.20;1.17;;;17.00;66.00;;;;;;4973892;28;20138;-77
2022/05/29 01:31:31;;;;;;;6.03;1.27;;;16.90;66.10;;;;;;4971989;28;20109;-77
2022/05/29 01:34:12;;;;;;;3.50;1.20;;;16.80;66.60;;;;;;4974360;28;20034;-76
2022/05/29 01:36:57;;;;;;;2.83;1.20;;;16.80;66.90;;;;;;4974508;28;20038;-77
2022/05/29 01:39:34;;;;;;;2.88;1.40;;;16.80;66.30;;;;;;4956789;28;20043;-77
2022/05/29 01:42:14;;;;;;;3.55;1.20;;;16.70;66.60;;;;;;4956645;28;20356;-78
2022/05/29 01:45:03;;;;;;;2.38;1.08;;;16.80;66.70;;;;;;4973956;28;20058;-77
2022/05/29 01:47:37;;;;;;;4.00;1.02;;;16.60;67.10;;;;;;4966660;28;20042;-77
2022/05/29 01:50:19;;;;;;;4.75;1.35;;;16.50;67.40;;;;;;4973979;28;20483;-77
2022/05/29 01:52:54;;;;;;;5.03;1.90;;;16.50;67.50;;;;;;4974450;28;20415;-78
2022/05/29 01:55:30;;;;;;;4.93;1.30;;;16.50;67.30;;;;;;4973852;28;20105;-77
2022/05/29 01:58:06;;;;;;;3.35;1.30;;;16.60;67.30;;;;;;4973740;28;20018;-77
2022/05/29 02:00:32;;;;;;;4.60;1.30;;;16.50;67.50;;;;;;4974038;28;20057;-77
2022/05/29 02:03:18;;;;;;;3.83;1.20;;;16.40;67.20;;;;;;4974113;28;20475;-77
2022/05/29 02:05:53;;;;;;;7.30;1.40;;;16.40;67.40;;;;;;4974078;28;20030;-77
2022/05/29 02:08:27;;;;;;;4.00;1.40;;;16.30;67.50;;;;;;4973880;28;20386;-77
2022/05/29 02:11:01;;;;;;;3.30;1.20;;;16.40;67.60;;;;;;4973708;28;20402;-77
2022/05/29 02:13:41;;;;;;;7.55;1.25;;;16.30;68.30;;;;;;4973699;28;20023;-77
2022/05/29 02:16:16;;;;;;;4.88;1.30;;;16.30;69.20;;;;;;4973818;28;20505;-77
2022/05/29 02:18:57;;;;;;;7.88;1.48;;;16.30;68.60;;;;;;4973820;28;20041;-77
2022/05/29 02:21:30;;;;;;;2.85;1.05;;;16.20;69.10;;;;;;4973739;28;20463;-78
2022/05/29 02:24:01;;;;;;;2.85;1.05;;;16.20;69.60;;;;;;4973730;28;20556;-78
2022/05/29 02:26:33;;;;;;;2.13;1.20;;;16.10;70.60;;;;;;4973467;28;20046;-77
2022/05/29 02:29:06;;;;;;;5.63;1.60;;;16.00;70.50;;;;;;4973788;28;20614;-77
2022/05/29 02:31:47;;;;;;;4.43;1.45;;;15.90;70.00;;;;;;4956335;28;20038;-77
2022/05/29 02:34:50;;;;;;;3.90;1.27;;;15.90;70.70;;;;;;4973860;28;20106;-77
2022/05/29 02:37:37;;;;;;;4.32;1.33;;;15.80;70.90;;;;;;4973485;28;20031;-77
2022/05/29 02:40:19;;;;;;;6.53;1.35;;;15.90;70.80;;;;;;4973617;28;20034;-78
2022/05/29 02:42:57;;;;;;;4.53;1.33;;;15.70;71.40;;;;;;4973779;28;20033;-77
2022/05/29 02:45:41;;;;;;;3.78;1.30;;;15.80;71.30;;;;;;4956111;28;20035;-77
2022/05/29 02:48:33;;;;;;;3.75;1.30;;;15.70;71.70;;;;;;4973206;28;20038;-77
2022/05/29 02:51:09;;;;;;;3.50;1.38;;;15.60;72.10;;;;;;4973628;28;20074;-78
2022/05/29 02:53:34;;;;;;;2.78;1.20;;;15.50;73.20;;;;;;4973126;28;20380;-77
2022/05/29 02:56:04;;;;;;;2.60;1.25;;;15.50;71.70;;;;;;4972953;28;20113;-77
2022/05/29 02:58:32;;;;;;;6.68;1.85;;;15.60;71.30;;;;;;4974709;28;20027;-77
2022/05/29 03:01:15;;;;;;;4.50;1.35;;;15.60;72.10;;;;;;4977130;28;20118;-77
2022/05/29 03:04:10;;;;;;;4.65;1.50;;;15.50;72.00;;;;;;4975990;28;20058;-77
2022/05/29 03:06:45;;;;;;;5.82;1.17;;;15.50;71.70;;;;;;4994422;28;20121;-77
2022/05/29 03:09:43;;;;;;;3.65;1.00;;;15.60;72.10;;;;;;4978562;28;20108;-77
2022/05/29 03:12:17;;;;;;;5.07;1.50;;;15.40;72.00;;;;;;4993122;28;20109;-77
2022/05/29 03:15:02;;;;;;;6.03;1.40;;;15.50;71.70;;;;;;4996591;28;20413;-77
2022/05/29 03:17:55;;;;;;;5.15;1.67;;;15.40;72.70;;;;;;4996436;28;20050;-77
2022/05/29 03:20:56;;;;;;;4.10;1.30;;;15.40;73.00;;;;;;4996133;28;20066;-78
2022/05/29 03:23:41;;;;;;;5.28;2.00;;;15.30;73.40;;;;;;4995665;28;20027;-77
2022/05/29 03:26:15;;;;;;;6.70;1.27;;;15.20;74.30;;;;;;4995535;28;20026;-77
2022/05/29 03:28:44;;;;;;;6.35;1.27;;;15.20;74.40;;;;;;4995962;28;20105;-77
2022/05/29 03:31:14;;;;;;;4.82;1.50;;;15.10;73.70;;;;;;4995875;28;20034;-76
2022/05/29 03:33:41;;;;;;;5.30;1.50;;;15.10;73.60;;;;;;4995937;28;20469;-78
2022/05/29 03:36:15;;;;;;;6.97;1.20;;;15.10;74.10;;;;;;4996284;28;20022;-77
2022/05/29 03:38:42;;;;;;;2.72;1.27;;;15.10;73.60;;;;;;4995824;28;20022;-77
2022/05/29 03:41:27;;;;;;;4.72;1.40;;;15.10;74.20;;;;;;4995518;28;20438;-77
2022/05/29 03:43:53;;;;;;;2.90;1.10;;;14.90;74.20;;;;;;4995515;28;20126;-77
2022/05/29 03:46:19;;;;;;;4.05;1.48;;;14.90;74.30;;;;;;4995506;28;20097;-77
2022/05/29 03:48:44;;;;;;;4.53;1.13;;;14.90;75.50;;;;;;4995887;28;20033;-78
2022/05/29 03:51:10;;;;;;;4.03;1.20;;;14.90;75.70;;;;;;4995408;28;20030;-77
2022/05/29 03:53:36;;;;;;;4.10;1.40;;;14.70;76.70;;;;;;4995428;28;20109;-77
2022/05/29 03:56:03;;;;;;;6.82;1.42;;;14.70;76.00;;;;;;4995428;28;20121;-77
2022/05/29 03:58:28;;;;;;;5.28;1.95;;;14.70;76.30;;;;;;4976013;28;20030;-77
2022/05/29 04:00:54;;;;;;;5.93;2.20;;;14.60;76.30;;;;;;4958618;28;20089;-77
2022/05/29 04:03:20;;;;;;;4.40;1.30;;;14.60;77.20;;;;;;4975714;28;20034;-77
2022/05/29 04:05:46;;;;;;;5.88;1.85;;;14.50;77.20;;;;;;4976029;28;20101;-77
2022/05/29 04:13:44;;;;;;;2.80;1.30;;;14.40;78.80;;;;;;4976013;28;20045;-77
2022/05/29 04:16:10;;;;;;;3.20;1.15;;;14.40;78.60;;;;;;4975867;28;20030;-78
2022/05/29 04:18:37;;;;;;;4.00;1.30;;;14.40;78.50;;;;;;4975329;28;20031;-77
2022/05/29 04:21:03;;;;;;;3.55;1.25;;;14.40;78.30;;;;;;4975816;28;20035;-77
2022/05/29 04:23:29;;;;;;;4.47;1.60;;;14.30;79.20;;;;;;4975401;28;20030;-78
2022/05/29 04:25:55;;;;;;;7.45;1.10;;;14.30;79.00;;;;;;4975838;28;20101;-78
2022/05/29 04:28:22;;;;;;;3.47;1.27;;;14.30;79.40;;;;;;4975277;28;20075;-78
2022/05/29 04:30:48;;;;;;;5.50;1.38;;;14.20;79.70;;;;;;4975523;28;20061;-78
2022/05/29 04:33:14;;;;;;;7.07;1.63;;;14.20;80.20;;;;;;4975479;28;20030;-77
2022/05/29 04:35:48;;;;;;;4.00;1.58;;;14.20;80.80;;;;;;4975378;28;20399;-78
2022/05/29 04:38:14;;;;;;;5.53;1.42;;;14.20;80.40;;;;;;4975197;28;20057;-77
2022/05/29 04:40:42;;;;;;;7.18;1.35;;;14.30;80.90;;;;;;4975185;28;20035;-77
2022/05/29 04:43:09;;;;;;;3.45;1.38;;;14.20;81.30;;;;;;4975488;28;20483;-78
2022/05/29 04:45:37;;;;;;;6.72;1.80;;;14.30;80.90;;;;;;4975362;28;20467;-78
2022/05/29 04:48:03;;;;;;;7.15;1.75;;;14.10;82.30;;;;;;4975536;28;20106;-77
2022/05/29 04:50:29;;;;;;;4.63;1.55;;;14.00;83.80;;;;;;4974880;28;20134;-76
2022/05/29 04:52:54;;;;;;;4.13;1.85;;;14.00;82.50;;;;;;4974883;28;20033;-77
2022/05/29 04:55:21;;;;;;;6.88;1.73;;;14.00;83.10;;;;;;4974758;28;20046;-77
2022/05/29 04:57:47;;;;;;;4.85;1.80;;;14.10;84.10;;;;;;4975096;28;20089;-77
2022/05/29 05:00:13;;;;;;;3.17;1.38;;;14.10;84.00;;;;;;4974934;28;20029;-77
2022/05/29 05:02:39;;;;;;;3.78;1.15;;;14.20;83.80;;;;;;4974989;28;20030;-77
2022/05/29 05:05:06;;;;;;;3.22;1.20;;;14.10;83.80;;;;;;4974860;28;20015;-76
2022/05/29 05:07:32;;;;;;;4.10;1.50;;;14.10;84.10;;;;;;4974406;28;20023;-77
2022/05/29 05:09:58;;;;;;;5.85;1.10;;;14.10;84.40;;;;;;4975099;28;20069;-77
2022/05/29 05:12:24;;;;;;;4.28;1.45;;;14.10;83.40;;;;;;4974720;28;20035;-77
2022/05/29 05:14:50;;;;;;;4.90;1.80;;;14.20;83.40;;;;;;4974904;28;20030;-77
2022/05/29 05:17:16;;;;;;;3.58;1.63;;;14.20;83.50;;;;;;4974578;28;20114;-78
2022/05/29 05:19:42;;;;;;;4.63;1.60;;;14.20;83.20;;;;;;4974556;28;20030;-77
2022/05/29 05:22:08;;;;;;;4.93;1.33;;;14.20;83.00;;;;;;4973677;28;20383;-77
2022/05/29 05:24:37;;;;;;;8.73;1.20;;;14.30;83.50;;;;;;4973823;28;20030;-78
2022/05/29 05:27:03;;;;;;;6.47;1.77;;;14.40;83.80;;;;;;4974415;28;20021;-77
2022/05/29 05:29:29;;;;;;;4.90;1.40;;;14.30;84.70;;;;;;4974213;28;20087;-78
2022/05/29 05:31:54;;;;;;;5.70;1.65;;;14.10;84.50;;;;;;4974246;28;20063;-77
2022/05/29 05:34:20;;;;;;;3.88;1.55;;;14.10;85.20;;;;;;4956421;28;20023;-77
2022/05/29 05:36:46;;;;;;;5.20;1.65;;;14.10;85.30;;;;;;4974546;28;20023;-77
2022/05/29 05:39:12;;;;;;;3.50;1.30;;;14.10;85.20;;;;;;4974465;28;20070;-77
2022/05/29 05:41:37;;;;;;;8.68;1.73;;;13.90;85.80;;;;;;4973965;28;20461;-76
2022/05/29 05:44:03;;;;;;;2.35;1.27;;;14.10;86.70;;;;;;4974665;28;20031;-77
2022/05/29 05:46:29;;;;;;;3.90;1.48;;;14.10;86.00;;;;;;4973836;28;20034;-77
2022/05/29 05:48:55;;;;;;;9.32;1.58;;;14.10;85.80;;;;;;4973849;28;20378;-77
2022/05/29 05:51:21;;;;;;;3.25;1.40;;;14.20;85.90;;;;;;4974489;28;20093;-77
2022/05/29 05:53:46;;;;;;;5.60;1.60;;;14.30;85.50;;;;;;4973981;28;20030;-77
2022/05/29 05:56:15;;;;;;;9.07;1.65;;;14.40;86.10;;;;;;4973942;28;20061;-77
2022/05/29 05:58:43;;;;;;;2.80;1.40;;;14.50;84.90;;;;;;4956304;28;20034;-77
2022/05/29 06:01:12;;;;;;;4.57;1.75;;;14.60;85.30;;;;;;4974209;28;20082;-77
2022/05/29 06:03:38;;;;;;;4.85;1.42;;;14.60;85.00;;;;;;4973367;28;20019;-77
2022/05/29 06:06:04;;;;;;;4.47;1.80;;;14.60;85.00;;;;;;4987268;28;20034;-77
2022/05/29 06:08:30;;;;;;;5.38;1.50;;;14.70;85.00;;;;;;4992770;28;20033;-77
2022/05/29 06:10:56;;;;;;;4.57;1.42;;;14.70;83.90;;;;;;4993235;28;20029;-77
2022/05/29 06:13:22;;;;;;;7.75;1.77;;;14.60;84.00;;;;;;4993542;28;20398;-77
2022/05/29 06:15:48;;;;;;;5.88;1.80;;;14.70;83.60;;;;;;4992979;28;20382;-76
2022/05/29 06:18:15;;;;;;;3.78;1.70;;;14.70;83.80;;;;;;4993025;28;20073;-77
2022/05/29 06:20:42;;;;;;;4.40;1.40;;;14.80;84.20;;;;;;4975579;28;20041;-77
2022/05/29 06:23:09;;;;;;;5.43;1.60;;;14.70;84.50;;;;;;4993134;28;20022;-77
2022/05/29 06:25:34;;;;;;;8.32;1.35;;;14.80;84.50;;;;;;4992817;28;20525;-78
2022/05/29 06:28:03;;;;;;;7.57;1.77;;;14.90;85.40;;;;;;4993539;28;20014;-78
2022/05/29 06:30:29;;;;;;;5.78;1.52;;;14.90;85.20;;;;;;4975409;28;20053;-78
2022/05/29 06:32:55;;;;;;;4.18;1.55;;;14.90;84.50;;;;;;4994561;28;20054;-77
2022/05/29 06:35:21;;;;;;;4.40;1.60;;;14.90;84.80;;;;;;4996598;28;20031;-77
2022/05/29 06:37:47;;;;;;;4.75;1.50;;;15.00;85.40;;;;;;4996425;28;20113;-77
2022/05/29 06:40:14;;;;;;;4.55;1.80;;;15.00;85.70;;;;;;4997110;28;20117;-77
2022/05/29 06:42:40;;;;;;;3.38;1.42;;;15.00;83.60;;;;;;4997088;28;20026;-78
2022/05/29 06:45:08;;;;;;;13.18;1.80;;;15.00;83.10;;;;;;4996997;28;20422;-77
2022/05/29 06:47:35;;;;;;;10.35;1.88;;;15.10;82.80;;;;;;4996516;28;20450;-77
2022/05/29 06:50:01;;;;;;;4.18;1.50;;;15.20;81.40;;;;;;4979428;28;20030;-78
2022/05/29 06:52:31;;;;;;;6.15;1.40;;;15.30;81.60;;;;;;4996874;28;20054;-76
2022/05/29 06:54:57;;;;;;;9.75;1.80;;;15.30;81.80;;;;;;4996769;28;20085;-77
2022/05/29 06:57:43;;;;;;;4.53;1.13;;;15.40;80.90;;;;;;4968386;28;20060;-77
2022/05/29 07:08:37;;;;;;;3.40;1.40;;;15.60;76.20;;;;;;4976969;28;20529;-78
2022/05/29 07:11:07;;;;;;;4.45;1.25;;;15.70;75.90;;;;;;4977111;28;20027;-77
2022/05/29 07:13:33;;;;;;;3.40;1.30;;;15.90;75.20;;;;;;4976985;28;20031;-76
2022/05/29 07:15:59;;;;;;;4.63;1.40;;;15.90;74.10;;;;;;4976437;28;20779;-76
2022/05/29 07:18:25;;;;;;;5.40;1.60;;;15.90;74.20;;;;;;4978226;28;20050;-77
2022/05/29 07:20:50;;;;;;;7.97;1.75;;;16.00;74.30;;;;;;4978916;28;20032;-76
2022/05/29 07:23:16;;;;;;;4.82;1.38;;;16.00;74.20;;;;;;4983201;28;20106;-76
2022/05/29 07:25:42;;;;;;;3.85;1.33;;;16.10;73.90;;;;;;4981374;28;20029;-76
2022/05/29 07:28:08;;;;;;;7.13;1.27;;;16.20;74.70;;;;;;4975529;28;20492;-76
2022/05/29 07:30:35;;;;;;;4.30;1.25;;;16.30;74.10;;;;;;4973823;28;20565;-75
2022/05/29 07:33:01;;;;;;;6.63;1.40;;;16.40;73.70;;;;;;4975390;28;20018;-76
2022/05/29 07:35:27;;;;;;;7.82;1.60;;;16.40;73.50;;;;;;4991437;28;20485;-83
2022/05/29 07:37:54;;;;;;;3.97;1.50;;;16.50;73.30;;;;;;4978702;28;20493;-79
2022/05/29 07:40:20;;;;;;;3.58;1.15;;;16.50;72.80;;;;;;4975846;28;20031;-79
2022/05/29 07:45:30;;;;;;;6.53;1.77;;;16.50;71.70;;;;;;4974323;28;20407;-79
2022/05/29 07:47:55;;;;;;;9.02;1.60;;;16.50;72.70;;;;;;4975243;28;20027;-79
2022/05/29 07:50:22;;;;;;;5.20;1.55;;;16.70;72.80;;;;;;4963964;28;20117;-78
2022/05/29 07:52:50;;;;;;;9.25;1.83;;;16.80;72.70;;;;;;4998867;28;20032;-79
2022/05/29 07:55:16;;;;;;;9.50;1.63;;;17.00;73.20;;;;;;4994171;28;20046;-78
2022/05/29 07:57:42;;;;;;;6.78;1.60;;;17.00;73.30;;;;;;4981340;28;20042;-76
2022/05/29 08:00:12;;;;;;;6.53;1.52;;;17.10;71.60;;;;;;4994088;28;20061;-80
2022/05/29 08:02:38;;;;;;;7.25;1.35;;;17.30;72.60;;;;;;4994478;28;20054;-83
2022/05/29 08:05:06;;;;;;;3.60;1.48;;;17.40;70.90;;;;;;4984323;28;20169;-76
2022/05/29 08:07:32;;;;;;;5.35;1.20;;;17.50;73.20;;;;;;4986367;28;20023;-75
2022/05/29 08:09:58;;;;;;;4.35;1.38;;;17.60;70.30;;;;;;4977728;28;20495;-79
2022/05/29 08:12:24;;;;;;;10.27;2.00;;;17.70;71.10;;;;;;4957512;28;20030;-76
2022/05/29 08:14:50;;;;;;;5.47;1.33;;;18.00;70.20;;;;;;4980533;28;20049;-74
2022/05/29 08:17:16;;;;;;;9.38;1.23;;;18.00;69.70;;;;;;4974924;28;20023;-74
2022/05/29 08:19:42;;;;;;;3.15;1.20;;;18.20;67.60;;;;;;4979800;28;20027;-75
2022/05/29 08:22:07;;;;;;;5.38;1.45;;;18.50;67.00;;;;;;4974760;28;20019;-76
2022/05/29 08:33:01;;;;;;;5.40;1.38;;;19.90;63.30;;;;;;4974210;28;20081;-76
2022/05/29 08:35:27;;;;;;;4.15;1.20;;;20.00;62.40;;;;;;4975675;28;20027;-76
2022/05/29 08:37:54;;;;;;;4.80;1.15;;;20.50;61.40;;;;;;4974386;28;20054;-76
2022/05/29 08:40:20;;;;;;;2.70;1.30;;;20.60;60.40;;;;;;4988005;28;20038;-76
2022/05/29 08:42:46;;;;;;;6.20;2.03;;;20.50;60.40;;;;;;4990950;28;20486;-76
2022/05/29 08:45:14;;;;;;;8.23;1.67;;;20.90;58.80;;;;;;4974375;28;20034;-75
2022/05/29 08:47:45;;;;;;;8.50;1.45;;;20.80;59.20;;;;;;4973817;28;20030;-75
2022/05/29 08:50:24;;;;;;;4.13;1.48;;;21.40;58.80;;;;;;4975179;28;20038;-76
2022/05/29 08:53:04;;;;;;;4.22;1.33;;;21.30;57.80;;;;;;4990801;28;20033;-79
2022/05/29 08:55:51;;;;;;;7.53;2.00;;;21.60;57.00;;;;;;4973235;28;20050;-81
2022/05/29 08:58:24;;;;;;;7.57;1.45;;;21.90;56.60;;;;;;4973768;28;20051;-74
2022/05/29 09:00:59;;;;;;;3.72;1.35;;;21.80;56.90;;;;;;4974233;28;20509;-75
2022/05/29 09:03:45;;;;;;;6.13;1.40;;;22.10;56.00;;;;;;4974783;28;20030;-76
2022/05/29 09:06:24;;;;;;;7.65;1.52;;;22.80;55.90;;;;;;4977719;28;20434;-75
2022/05/29 09:09:12;;;;;;;4.00;1.20;;;22.70;53.90;;;;;;4974486;28;20031;-76
2022/05/29 09:11:48;;;;;;;5.22;1.70;;;23.00;53.30;;;;;;4973845;28;20037;-75
2022/05/29 09:14:14;;;;;;;6.45;1.50;;;23.20;54.10;;;;;;4974632;28;20065;-75
2022/05/29 09:16:47;;;;;;;7.25;1.77;;;23.20;52.70;;;;;;4974540;28;20483;-76
2022/05/29 09:19:13;;;;;;;6.75;1.63;;;23.00;53.30;;;;;;4988842;28;20061;-75
2022/05/29 09:21:58;;;;;;;6.72;1.50;;;22.90;52.60;;;;;;4990990;28;20045;-76
2022/05/29 09:24:46;;;;;;;6.75;1.92;;;23.20;51.60;;;;;;4986123;28;20065;-76
2022/05/29 09:27:12;;;;;;;4.63;1.30;;;23.30;51.40;;;;;;4973647;28;20027;-75
2022/05/29 09:29:38;;;;;;;6.53;1.48;;;23.40;51.20;;;;;;4978842;28;20030;-76
2022/05/29 09:32:08;;;;;;;11.10;1.50;;;23.40;52.00;;;;;;4980778;28;20022;-76
2022/05/29 09:34:33;;;;;;;6.47;1.55;;;23.70;50.80;;;;;;4981331;28;20375;-76
2022/05/29 09:37:18;;;;;;;4.55;1.13;;;23.80;50.00;;;;;;4985575;28;20031;-75
2022/05/29 09:39:47;;;;;;;3.85;1.33;;;23.70;50.80;;;;;;4980217;28;20050;-75
2022/05/29 09:42:24;;;;;;;8.23;1.60;;;23.80;50.40;;;;;;4973224;28;20027;-75
2022/05/29 09:45:22;;;;;;;6.25;1.65;;;23.90;49.60;;;;;;4989928;28;20026;-74
2022/05/29 09:50:57;;;;;;;8.45;1.42;;;23.80;48.90;;;;;;4973992;28;20424;-76
2022/05/29 09:53:29;;;;;;;5.60;1.75;;;24.10;48.40;;;;;;4960738;28;20058;-75
2022/05/29 09:56:09;;;;;;;4.85;1.25;;;24.00;48.30;;;;;;4973334;28;20090;-76
2022/05/29 09:58:51;;;;;;;5.68;1.27;;;23.70;48.80;;;;;;4979829;28;20027;-76
2022/05/29 10:01:34;;;;;;;7.97;1.67;;;24.20;49.50;;;;;;4979637;28;21169;-76
2022/05/29 10:04:03;;;;;;;7.93;1.85;;;24.40;47.80;;;;;;4978170;28;20038;-75
2022/05/29 10:06:42;;;;;;;6.72;1.90;;;24.30;47.50;;;;;;4973108;28;20379;-76
2022/05/29 10:09:18;;;;;;;48.95;3.40;;;24.30;47.60;;;;;;4989393;28;20034;-76
2022/05/29 10:11:47;;;;;;;26.58;2.30;;;24.60;47.00;;;;;;4973411;28;20026;-75
2022/05/29 10:14:45;;;;;;;128.23;5.13;;;24.90;47.80;;;;;;4977066;28;20045;-75
2022/05/29 10:17:13;;;;;;;7.22;1.40;;;24.70;46.40;;;;;;4968497;28;20384;-77
2022/05/29 10:19:45;;;;;;;4.82;1.27;;;24.90;45.70;;;;;;4962502;28;20693;-75
2022/05/29 10:22:19;;;;;;;9.88;1.60;;;25.10;45.80;;;;;;4973619;28;20021;-74
2022/05/29 10:24:45;;;;;;;6.63;1.90;;;24.90;45.90;;;;;;4971957;28;20390;-75
2022/05/29 10:27:38;;;;;;;9.65;1.58;;;25.10;47.00;;;;;;4972706;28;20028;-75
2022/05/29 10:30:11;;;;;;;5.05;1.40;;;25.00;46.40;;;;;;4969871;28;20034;-75
2022/05/29 10:32:41;;;;;;;17.48;2.10;;;24.70;45.60;;;;;;4961905;28;20418;-75
2022/05/29 10:35:31;;;;;;;5.57;1.75;;;25.00;44.40;;;;;;4983750;28;20027;-74
2022/05/29 10:37:57;;;;;;;12.25;1.65;;;24.80;45.40;;;;;;4972074;28;20030;-74
2022/05/29 10:40:28;;;;;;;11.15;4.63;;;24.90;44.40;;;;;;4955439;28;20089;-76
2022/05/29 10:43:00;;;;;;;11.60;2.53;;;25.10;45.00;;;;;;4972189;28;20070;-74
2022/05/29 10:45:27;;;;;;;8.18;3.20;;;24.80;45.50;;;;;;4974932;28;20034;-74
2022/05/29 10:48:13;;;;;;;5.70;1.90;;;24.80;46.30;;;;;;4971718;28;20475;-76
2022/05/29 10:51:04;;;;;;;8.43;1.88;;;25.00;43.90;;;;;;4970814;28;20105;-75
2022/05/29 10:53:42;;;;;;;5.90;1.85;;;25.30;45.10;;;;;;4971663;28;20038;-75
2022/05/29 10:56:30;;;;;;;6.32;1.80;;;25.50;44.80;;;;;;4975418;28;20081;-76
2022/05/29 10:59:40;;;;;;;6.10;2.08;;;25.70;45.70;;;;;;4971486;28;20035;-75
2022/05/29 11:05:28;;;;;;;4.35;1.65;;;25.40;42.80;;;;;;4973138;28;20069;-75
2022/05/29 11:08:11;;;;;;;6.25;1.80;;;25.30;44.00;;;;;;4971624;28;20478;-76
2022/05/29 11:10:56;;;;;;;6.22;1.40;;;25.50;43.80;;;;;;4971738;28;20408;-75
2022/05/29 11:13:44;;;;;;;8.13;1.77;;;25.80;44.60;;;;;;4970275;28;20029;-74
2022/05/29 11:16:43;;;;;;;6.00;1.50;;;25.70;44.00;;;;;;4971619;28;20031;-74
2022/05/29 11:19:34;;;;;;;10.57;1.30;;;25.40;43.00;;;;;;4972465;28;20033;-74
2022/05/29 11:22:08;;;;;;;9.13;1.60;;;25.80;43.20;;;;;;4975380;28;20047;-74
2022/05/29 11:24:38;;;;;;;8.10;2.15;;;26.00;43.40;;;;;;4975002;28;20559;-74
2022/05/29 11:27:04;;;;;;;4.97;1.58;;;26.50;43.90;;;;;;4974909;28;20022;-74
2022/05/29 11:30:04;;;;;;;8.32;2.05;;;26.10;44.60;;;;;;4974855;28;20039;-74
2022/05/29 11:32:46;;;;;;;9.23;2.35;;;25.90;42.70;;;;;;4973323;28;20023;-74
2022/05/29 11:35:39;;;;;;;4.68;1.75;;;25.50;42.90;;;;;;4974858;28;20031;-74
2022/05/29 11:38:30;;;;;;;10.75;2.38;;;25.80;43.00;;;;;;4977290;28;20427;-75
2022/05/29 11:41:05;;;;;;;6.07;2.28;;;25.70;42.70;;;;;;4970227;28;20121;-75
2022/05/29 11:44:07;;;;;;;7.85;1.75;;;25.80;43.90;;;;;;4965427;28;20077;-73
2022/05/29 11:52:38;;;;;;;6.30;1.20;;;26.10;42.50;;;;;;4975320;28;20081;-76
2022/05/29 11:55:16;;;;;;;12.52;2.22;;;26.10;42.50;;;;;;4973599;28;20037;-75
2022/05/29 11:57:57;;;;;;;4.10;1.40;;;26.10;43.70;;;;;;4975313;28;20081;-75
2022/05/29 12:00:22;;;;;;;8.45;1.60;;;26.10;42.80;;;;;;4976740;28;20035;-76
2022/05/29 12:02:57;;;;;;;21.52;6.28;;;25.60;44.20;;;;;;4987955;28;20026;-76
2022/05/29 12:05:32;;;;;;;6.88;1.70;;;25.70;44.60;;;;;;4981288;28;20107;-76
2022/05/29 12:08:19;;;;;;;6.80;1.60;;;25.80;43.80;;;;;;4976932;28;20043;-76
2022/05/29 12:11:21;;;;;;;4.80;1.60;;;26.00;41.70;;;;;;4981211;28;20498;-75
2022/05/29 12:14:10;;;;;;;6.53;1.20;;;26.10;42.80;;;;;;4991038;28;20029;-76
2022/05/29 12:16:40;;;;;;;7.43;1.60;;;26.20;42.00;;;;;;4968022;28;20041;-76
2022/05/29 12:19:25;;;;;;;4.55;1.38;;;26.10;39.60;;;;;;4981887;28;20109;-76
2022/05/29 12:22:01;;;;;;;6.03;1.83;;;26.30;39.60;;;;;;4983302;28;20058;-76
2022/05/29 12:24:31;;;;;;;4.03;1.50;;;26.20;41.40;;;;;;4987328;28;20080;-76
2022/05/29 12:27:19;;;;;;;4.78;1.63;;;26.40;42.10;;;;;;4984852;28;20030;-76
2022/05/29 12:29:49;;;;;;;5.07;1.52;;;26.10;41.10;;;;;;4970356;28;20026;-79
2022/05/29 12:32:20;;;;;;;3.78;1.80;;;26.30;39.70;;;;;;4965329;28;20023;-79
2022/05/29 12:34:57;;;;;;;;;;;26.40;41.20;;;;;;4979231;28;20023;-80
2022/05/29 12:37:51;;;;;;;5.55;1.30;;;26.70;38.90;;;;;;4983599;28;20437;-80
2022/05/29 12:40:55;;;;;;;9.63;1.40;;;26.70;40.80;;;;;;4983266;28;20386;-80
2022/05/29 12:43:57;;;;;;;5.97;1.50;;;26.50;40.10;;;;;;4977780;28;20035;-80
2022/05/29 12:46:52;;;;;;;;;;;26.30;39.80;;;;;;4978553;28;20023;-80
2022/05/29 12:49:51;;;;;;;3.95;1.13;;;26.40;39.50;;;;;;4975715;28;19906;-80
2022/05/29 12:52:26;;;;;;;4.20;1.88;;;26.50;39.40;;;;;;4954462;28;20098;-80
2022/05/29 12:55:10;;;;;;;6.10;1.10;;;26.40;39.50;;;;;;4980096;28;20486;-76
2022/05/29 12:57:39;;;;;;;5.05;1.48;;;26.40;38.80;;;;;;4985067;28;20038;-79
2022/05/29 13:00:23;;;;;;;3.72;1.33;;;26.50;40.30;;;;;;4985739;28;20037;-80
2022/05/29 13:03:13;;;;;;;5.22;1.40;;;26.60;40.40;;;;;;4990193;28;20105;-80
2022/05/29 13:06:36;;;;;;;7.28;1.67;;;26.40;39.80;;;;;;4982383;28;20018;-80
2022/05/29 13:09:23;;;;;;;5.43;1.63;;;26.70;40.20;;;;;;4914993;29;20024;-79
2022/05/29 13:11:53;;;;;;;5.72;1.35;;;26.60;39.60;;;;;;4918199;29;20029;-79
2022/05/29 13:14:22;;;;;;;5.07;1.50;;;26.60;39.30;;;;;;4911296;29;20036;-79
2022/05/29 13:17:02;;;;;;;7.00;1.30;;;26.70;38.00;;;;;;4916614;29;20120;-79
2022/05/29 13:19:56;;;;;;;6.72;1.60;;;27.00;39.70;;;;;;4922587;29;20039;-80
2022/05/29 13:22:41;;;;;;;4.70;1.10;;;26.60;38.10;;;;;;4914633;29;20119;-80
2022/05/29 13:25:07;;;;;;;1.33;0.70;;;26.30;38.80;;;;;;4921374;29;20032;-79
2022/05/29 13:27:33;;;;;;;5.80;1.33;;;26.30;37.80;;;;;;4925507;29;20039;-79
2022/05/29 13:30:02;;;;;;;3.80;1.42;;;26.50;37.50;;;;;;4918419;29;20036;-79
2022/05/29 13:32:30;;;;;;;3.65;1.00;;;26.30;37.10;;;;;;4920024;29;20063;-79
2022/05/29 13:35:08;;;;;;;3.15;1.10;;;26.50;35.40;;;;;;4917935;29;20156;-79
2022/05/29 13:37:46;;;;;;;3.63;0.95;;;26.20;36.00;;;;;;4926656;29;20028;-78
2022/05/29 13:40:21;;;;;;;4.13;1.27;;;26.00;35.40;;;;;;4968490;28;20043;-78
2022/05/29 13:42:50;;;;;;;3.45;0.95;;;26.10;33.10;;;;;;4981192;28;20498;-78
2022/05/29 13:45:19;;;;;;;18.50;1.90;;;26.10;33.50;;;;;;4984720;28;20027;-79
2022/05/29 13:48:04;;;;;;;4.50;0.95;;;26.60;33.90;;;;;;4987771;28;20092;-79
2022/05/29 13:50:40;;;;;;;3.03;0.98;;;26.50;32.50;;;;;;4992317;28;20486;-76
2022/05/29 13:53:13;;;;;;;3.88;0.77;;;26.20;30.80;;;;;;4978556;28;20026;-79
2022/05/29 13:55:42;;;;;;;6.57;1.65;;;26.30;29.40;;;;;;4983211;28;20050;-78
2022/05/29 14:04:07;;;;;;;6.47;1.13;;;26.30;32.70;;;;;;4979054;28;19929;-79